sensor_id;sensor_type;location;lat;lon;timestamp;pressure;altitude;pressure_sealevel;temperature;humidity
30897;BME280;64229;52.246;21.054;2022-10-17T00:01:18;101464.19;;;14.41;95.70
30897;BME280;64229;52.246;21.054;2022-10-17T00:03:43;101464.47;;;14.40;95.92
30897;BME280;64229;52.246;21.054;2022-10-17T00:06:11;101455.50;;;14.19;96.79
30897;BME280;64229;52.246;21.054;2022-10-17T00:08:37;101475.16;;;14.30;96.59
30897;BME280;64229;52.246;21.054;2022-10-17T00:11:07;101461.44;;;14.26;96.53
30897;BME280;64229;52.246;21.054;2022-10-17T00:13:33;101469.28;;;14.38;96.19
30897;BME280;64229;52.246;21.054;2022-10-17T00:15:59;101481.06;;;14.27;96.46
30897;BME280;64229;52.246;21.054;2022-10-17T00:18:24;101480.25;;;14.26;96.68
30897;BME280;64229;52.246;21.054;2022-10-17T00:20:50;101474.56;;;14.23;96.79
30897;BME280;64229;52.246;21.054;2022-10-17T00:23:15;101473.44;;;14.13;97.31
30897;BME280;64229;52.246;21.054;2022-10-17T00:25:41;101474.78;;;14.11;97.51
30897;BME280;64229;52.246;21.054;2022-10-17T00:28:12;101474.44;;;14.02;97.72
30897;BME280;64229;52.246;21.054;2022-10-17T00:30:38;101463.75;;;14.07;97.89
30897;BME280;64229;52.246;21.054;2022-10-17T00:33:04;101466.38;;;14.02;98.29
30897;BME280;64229;52.246;21.054;2022-10-17T00:35:29;101462.63;;;14.03;98.36
30897;BME280;64229;52.246;21.054;2022-10-17T00:37:55;101468.84;;;14.09;97.75
30897;BME280;64229;52.246;21.054;2022-10-17T00:40:20;101478.00;;;14.13;97.41
30897;BME280;64229;52.246;21.054;2022-10-17T00:42:45;101483.34;;;14.08;97.71
30897;BME280;64229;52.246;21.054;2022-10-17T00:47:57;101491.25;;;13.87;99.12
30897;BME280;64229;52.246;21.054;2022-10-17T00:50:25;101487.16;;;13.80;100.00
30897;BME280;64229;52.246;21.054;2022-10-17T00:52:50;101486.34;;;13.74;100.00
30897;BME280;64229;52.246;21.054;2022-10-17T00:55:20;101491.16;;;13.72;100.00
30897;BME280;64229;52.246;21.054;2022-10-17T00:57:47;101479.63;;;13.77;100.00
30897;BME280;64229;52.246;21.054;2022-10-17T01:00:13;101486.63;;;13.78;100.00
30897;BME280;64229;52.246;21.054;2022-10-17T01:02:39;101480.06;;;14.01;98.41
30897;BME280;64229;52.246;21.054;2022-10-17T01:05:05;101483.91;;;14.10;97.34
30897;BME280;64229;52.246;21.054;2022-10-17T01:07:31;101486.03;;;14.08;97.00
30897;BME280;64229;52.246;21.054;2022-10-17T01:09:57;101487.66;;;14.09;96.87
30897;BME280;64229;52.246;21.054;2022-10-17T01:12:54;101473.63;;;13.97;97.03
30897;BME280;64229;52.246;21.054;2022-10-17T01:23:52;101494.88;;;13.71;98.97
30897;BME280;64229;52.246;21.054;2022-10-17T01:26:36;101499.78;;;13.47;100.00
30897;BME280;64229;52.246;21.054;2022-10-17T01:31:54;101495.88;;;13.33;100.00
30897;BME280;64229;52.246;21.054;2022-10-17T01:34:31;101471.56;;;13.18;100.00
30897;BME280;64229;52.246;21.054;2022-10-17T01:37:07;101479.50;;;13.08;100.00
30897;BME280;64229;52.246;21.054;2022-10-17T01:44:47;101481.25;;;12.97;100.00
30897;BME280;64229;52.246;21.054;2022-10-17T01:47:17;101474.53;;;12.94;100.00
30897;BME280;64229;52.246;21.054;2022-10-17T01:49:44;101496.53;;;12.96;100.00
30897;BME280;64229;52.246;21.054;2022-10-17T01:52:14;101490.94;;;12.98;100.00
30897;BME280;64229;52.246;21.054;2022-10-17T01:54:48;101482.31;;;12.96;100.00
30897;BME280;64229;52.246;21.054;2022-10-17T01:57:25;101473.63;;;12.84;100.00
30897;BME280;64229;52.246;21.054;2022-10-17T01:59:54;101489.78;;;12.89;100.00
30897;BME280;64229;52.246;21.054;2022-10-17T02:02:21;101484.75;;;12.75;100.00
30897;BME280;64229;52.246;21.054;2022-10-17T02:04:48;101491.31;;;12.63;100.00
30897;BME280;64229;52.246;21.054;2022-10-17T02:07:15;101492.63;;;12.60;100.00
30897;BME280;64229;52.246;21.054;2022-10-17T02:09:40;101481.91;;;12.60;100.00
30897;BME280;64229;52.246;21.054;2022-10-17T02:12:18;101491.41;;;12.68;100.00
30897;BME280;64229;52.246;21.054;2022-10-17T02:20:34;101492.13;;;12.63;100.00
30897;BME280;64229;52.246;21.054;2022-10-17T02:25:37;101489.91;;;12.55;100.00
30897;BME280;64229;52.246;21.054;2022-10-17T02:28:21;101497.03;;;12.50;100.00
30897;BME280;64229;52.246;21.054;2022-10-17T02:33:22;101503.38;;;12.43;100.00
30897;BME280;64229;52.246;21.054;2022-10-17T02:35:52;101503.06;;;12.40;100.00
30897;BME280;64229;52.246;21.054;2022-10-17T02:38:19;101503.47;;;12.32;100.00
30897;BME280;64229;52.246;21.054;2022-10-17T02:40:45;101516.63;;;12.33;100.00
30897;BME280;64229;52.246;21.054;2022-10-17T02:43:14;101516.06;;;12.31;100.00
30897;BME280;64229;52.246;21.054;2022-10-17T02:45:39;101526.47;;;12.28;100.00
30897;BME280;64229;52.246;21.054;2022-10-17T02:48:22;101526.72;;;12.26;100.00
30897;BME280;64229;52.246;21.054;2022-10-17T02:51:03;101536.41;;;12.32;100.00
30897;BME280;64229;52.246;21.054;2022-10-17T02:53:37;101532.69;;;12.33;100.00
30897;BME280;64229;52.246;21.054;2022-10-17T02:56:15;101535.13;;;12.35;100.00
30897;BME280;64229;52.246;21.054;2022-10-17T02:58:42;101538.63;;;12.35;100.00
30897;BME280;64229;52.246;21.054;2022-10-17T03:01:09;101544.13;;;12.29;100.00
30897;BME280;64229;52.246;21.054;2022-10-17T03:03:34;101550.41;;;12.18;100.00
30897;BME280;64229;52.246;21.054;2022-10-17T03:06:00;101558.69;;;12.16;100.00
30897;BME280;64229;52.246;21.054;2022-10-17T03:08:25;101559.16;;;12.13;100.00
30897;BME280;64229;52.246;21.054;2022-10-17T03:10:50;101559.50;;;12.16;100.00
30897;BME280;64229;52.246;21.054;2022-10-17T03:13:17;101564.44;;;12.25;100.00
30897;BME280;64229;52.246;21.054;2022-10-17T03:15:42;101567.97;;;12.30;100.00
30897;BME280;64229;52.246;21.054;2022-10-17T03:18:08;101554.69;;;12.35;100.00
30897;BME280;64229;52.246;21.054;2022-10-17T03:20:33;101566.13;;;12.31;100.00
30897;BME280;64229;52.246;21.054;2022-10-17T03:22:58;101563.03;;;12.22;100.00
30897;BME280;64229;52.246;21.054;2022-10-17T03:25:24;101572.63;;;12.18;100.00
30897;BME280;64229;52.246;21.054;2022-10-17T03:27:50;101563.31;;;12.04;100.00
30897;BME280;64229;52.246;21.054;2022-10-17T03:30:15;101577.75;;;12.03;100.00
30897;BME280;64229;52.246;21.054;2022-10-17T03:32:40;101578.56;;;12.03;100.00
30897;BME280;64229;52.246;21.054;2022-10-17T03:35:06;101574.56;;;12.06;100.00
30897;BME280;64229;52.246;21.054;2022-10-17T03:37:31;101580.88;;;12.00;100.00
30897;BME280;64229;52.246;21.054;2022-10-17T03:39:56;101578.13;;;11.95;100.00
30897;BME280;64229;52.246;21.054;2022-10-17T03:42:22;101569.78;;;11.91;100.00
30897;BME280;64229;52.246;21.054;2022-10-17T03:44:47;101571.31;;;11.87;100.00
30897;BME280;64229;52.246;21.054;2022-10-17T03:47:12;101573.50;;;11.90;100.00
30897;BME280;64229;52.246;21.054;2022-10-17T03:49:37;101573.41;;;11.85;100.00
30897;BME280;64229;52.246;21.054;2022-10-17T03:52:03;101566.28;;;11.91;100.00
30897;BME280;64229;52.246;21.054;2022-10-17T03:54:28;101569.78;;;11.91;100.00
30897;BME280;64229;52.246;21.054;2022-10-17T03:56:53;101564.44;;;11.91;100.00
30897;BME280;64229;52.246;21.054;2022-10-17T03:59:19;101570.25;;;11.88;100.00
30897;BME280;64229;52.246;21.054;2022-10-17T04:01:44;101567.56;;;11.88;100.00
30897;BME280;64229;52.246;21.054;2022-10-17T04:04:09;101572.22;;;11.93;100.00
30897;BME280;64229;52.246;21.054;2022-10-17T04:06:35;101583.50;;;11.95;100.00
30897;BME280;64229;52.246;21.054;2022-10-17T04:09:02;101583.50;;;11.95;100.00
30897;BME280;64229;52.246;21.054;2022-10-17T04:11:27;101585.28;;;12.06;100.00
30897;BME280;64229;52.246;21.054;2022-10-17T04:13:54;101589.41;;;12.13;100.00
30897;BME280;64229;52.246;21.054;2022-10-17T04:16:21;101584.63;;;12.15;100.00
30897;BME280;64229;52.246;21.054;2022-10-17T04:18:46;101588.19;;;12.21;100.00
30897;BME280;64229;52.246;21.054;2022-10-17T04:21:12;101585.25;;;12.23;100.00
30897;BME280;64229;52.246;21.054;2022-10-17T04:23:37;101582.81;;;12.21;100.00
30897;BME280;64229;52.246;21.054;2022-10-17T04:26:04;101589.91;;;12.27;100.00
30897;BME280;64229;52.246;21.054;2022-10-17T04:28:31;101592.88;;;12.31;100.00
30897;BME280;64229;52.246;21.054;2022-10-17T04:31:04;101588.59;;;12.30;100.00
30897;BME280;64229;52.246;21.054;2022-10-17T04:33:30;101598.75;;;12.28;100.00
30897;BME280;64229;52.246;21.054;2022-10-17T04:36:00;101608.53;;;12.22;100.00
30897;BME280;64229;52.246;21.054;2022-10-17T04:38:27;101596.63;;;12.13;100.00
30897;BME280;64229;52.246;21.054;2022-10-17T04:40:53;101588.19;;;12.04;100.00
30897;BME280;64229;52.246;21.054;2022-10-17T04:43:18;101574.97;;;11.98;100.00
30897;BME280;64229;52.246;21.054;2022-10-17T04:45:44;101588.34;;;11.98;100.00
30897;BME280;64229;52.246;21.054;2022-10-17T04:48:09;101592.00;;;11.92;100.00
30897;BME280;64229;52.246;21.054;2022-10-17T04:50:34;101598.97;;;11.93;100.00
30897;BME280;64229;52.246;21.054;2022-10-17T04:53:00;101595.94;;;11.89;100.00
30897;BME280;64229;52.246;21.054;2022-10-17T04:55:25;101610.00;;;11.96;100.00
30897;BME280;64229;52.246;21.054;2022-10-17T04:57:50;101608.53;;;12.05;100.00
30897;BME280;64229;52.246;21.054;2022-10-17T05:00:16;101614.72;;;12.06;100.00
30897;BME280;64229;52.246;21.054;2022-10-17T05:02:41;101612.19;;;12.16;100.00
30897;BME280;64229;52.246;21.054;2022-10-17T05:05:06;101613.88;;;12.22;100.00
30897;BME280;64229;52.246;21.054;2022-10-17T05:07:32;101623.88;;;12.27;100.00
30897;BME280;64229;52.246;21.054;2022-10-17T05:09:57;101636.22;;;12.28;100.00
30897;BME280;64229;52.246;21.054;2022-10-17T05:12:23;101643.50;;;12.32;100.00
30897;BME280;64229;52.246;21.054;2022-10-17T05:14:48;101639.06;;;12.38;100.00
30897;BME280;64229;52.246;21.054;2022-10-17T05:17:14;101626.88;;;12.30;100.00
30897;BME280;64229;52.246;21.054;2022-10-17T05:19:39;101649.84;;;12.43;100.00
30897;BME280;64229;52.246;21.054;2022-10-17T05:22:05;101646.94;;;12.44;100.00
30897;BME280;64229;52.246;21.054;2022-10-17T05:24:31;101654.72;;;12.46;100.00
30897;BME280;64229;52.246;21.054;2022-10-17T05:26:56;101641.72;;;12.38;100.00
30897;BME280;64229;52.246;21.054;2022-10-17T05:29:21;101630.53;;;12.24;100.00
30897;BME280;64229;52.246;21.054;2022-10-17T05:31:46;101638.88;;;12.11;100.00
30897;BME280;64229;52.246;21.054;2022-10-17T05:34:12;101643.16;;;12.12;100.00
30897;BME280;64229;52.246;21.054;2022-10-17T05:36:37;101656.41;;;12.19;100.00
30897;BME280;64229;52.246;21.054;2022-10-17T05:39:02;101667.03;;;12.30;100.00
30897;BME280;64229;52.246;21.054;2022-10-17T05:41:28;101674.91;;;12.37;100.00
30897;BME280;64229;52.246;21.054;2022-10-17T05:43:53;101680.34;;;12.42;100.00
30897;BME280;64229;52.246;21.054;2022-10-17T05:46:18;101682.31;;;12.47;100.00
30897;BME280;64229;52.246;21.054;2022-10-17T05:48:43;101690.91;;;12.49;100.00
30897;BME280;64229;52.246;21.054;2022-10-17T05:51:09;101684.88;;;12.41;100.00
30897;BME280;64229;52.246;21.054;2022-10-17T05:53:38;101696.00;;;12.50;100.00
30897;BME280;64229;52.246;21.054;2022-10-17T05:56:06;101693.03;;;12.47;100.00
30897;BME280;64229;52.246;21.054;2022-10-17T05:58:32;101694.81;;;12.58;100.00
30897;BME280;64229;52.246;21.054;2022-10-17T06:01:00;101691.28;;;12.74;100.00
30897;BME280;64229;52.246;21.054;2022-10-17T06:03:26;101692.84;;;12.70;100.00
30897;BME280;64229;52.246;21.054;2022-10-17T06:05:52;101682.47;;;12.57;100.00
30897;BME280;64229;52.246;21.054;2022-10-17T06:08:18;101687.91;;;12.45;100.00
30897;BME280;64229;52.246;21.054;2022-10-17T06:10:47;101687.50;;;12.36;100.00
30897;BME280;64229;52.246;21.054;2022-10-17T06:13:13;101687.75;;;12.35;100.00
30897;BME280;64229;52.246;21.054;2022-10-17T06:15:38;101690.59;;;12.45;100.00
30897;BME280;64229;52.246;21.054;2022-10-17T06:18:04;101700.56;;;12.50;100.00
30897;BME280;64229;52.246;21.054;2022-10-17T06:20:29;101709.25;;;12.57;100.00
30897;BME280;64229;52.246;21.054;2022-10-17T06:22:54;101711.75;;;12.63;100.00
30897;BME280;64229;52.246;21.054;2022-10-17T06:25:19;101705.94;;;12.66;100.00
30897;BME280;64229;52.246;21.054;2022-10-17T06:27:45;101698.53;;;12.73;100.00
30897;BME280;64229;52.246;21.054;2022-10-17T06:30:10;101700.63;;;12.88;100.00
30897;BME280;64229;52.246;21.054;2022-10-17T06:32:35;101705.19;;;12.88;100.00
30897;BME280;64229;52.246;21.054;2022-10-17T06:35:00;101703.88;;;12.90;100.00
30897;BME280;64229;52.246;21.054;2022-10-17T06:37:30;101715.06;;;13.04;100.00
30897;BME280;64229;52.246;21.054;2022-10-17T06:39:55;101714.94;;;13.16;100.00
30897;BME280;64229;52.246;21.054;2022-10-17T06:42:21;101722.84;;;13.22;100.00
30897;BME280;64229;52.246;21.054;2022-10-17T06:44:46;101710.41;;;13.16;100.00
30897;BME280;64229;52.246;21.054;2022-10-17T06:47:11;101715.22;;;13.31;100.00
30897;BME280;64229;52.246;21.054;2022-10-17T06:49:37;101714.59;;;13.46;100.00
30897;BME280;64229;52.246;21.054;2022-10-17T06:52:03;101726.44;;;13.72;100.00
30897;BME280;64229;52.246;21.054;2022-10-17T06:54:28;101727.00;;;13.74;100.00
30897;BME280;64229;52.246;21.054;2022-10-17T06:56:53;101729.66;;;13.96;96.43
30897;BME280;64229;52.246;21.054;2022-10-17T06:59:20;101723.28;;;14.02;96.03
30897;BME280;64229;52.246;21.054;2022-10-17T07:01:45;101730.16;;;13.93;97.13
30897;BME280;64229;52.246;21.054;2022-10-17T07:04:10;101734.09;;;14.07;95.70
30897;BME280;64229;52.246;21.054;2022-10-17T07:06:37;101728.91;;;14.00;94.54
30897;BME280;64229;52.246;21.054;2022-10-17T07:09:02;101729.84;;;13.89;95.25
30897;BME280;64229;52.246;21.054;2022-10-17T07:11:30;101721.00;;;13.88;95.42
30897;BME280;64229;52.246;21.054;2022-10-17T07:13:56;101738.63;;;14.06;95.03
30897;BME280;64229;52.246;21.054;2022-10-17T07:16:21;101727.19;;;14.16;94.64
30897;BME280;64229;52.246;21.054;2022-10-17T07:18:50;101736.81;;;14.39;93.24
30897;BME280;64229;52.246;21.054;2022-10-17T07:21:16;101740.97;;;14.52;91.88
30897;BME280;64229;52.246;21.054;2022-10-17T07:23:41;101741.84;;;14.57;91.74
30897;BME280;64229;52.246;21.054;2022-10-17T07:26:09;101739.66;;;14.54;92.86
30897;BME280;64229;52.246;21.054;2022-10-17T07:28:37;101735.69;;;14.62;93.22
30897;BME280;64229;52.246;21.054;2022-10-17T07:31:08;101729.38;;;14.78;89.33
30897;BME280;64229;52.246;21.054;2022-10-17T07:33:34;101738.50;;;14.77;89.87
30897;BME280;64229;52.246;21.054;2022-10-17T07:36:00;101735.34;;;14.85;90.07
30897;BME280;64229;52.246;21.054;2022-10-17T07:38:26;101737.03;;;14.96;88.93
30897;BME280;64229;52.246;21.054;2022-10-17T07:40:59;101745.41;;;15.05;88.96
30897;BME280;64229;52.246;21.054;2022-10-17T07:43:26;101745.94;;;15.02;90.24
30897;BME280;64229;52.246;21.054;2022-10-17T07:45:52;101749.72;;;15.01;91.41
30897;BME280;64229;52.246;21.054;2022-10-17T07:48:18;101757.84;;;15.11;90.91
30897;BME280;64229;52.246;21.054;2022-10-17T07:50:44;101752.75;;;15.15;91.11
30897;BME280;64229;52.246;21.054;2022-10-17T07:53:09;101756.09;;;15.37;88.97
30897;BME280;64229;52.246;21.054;2022-10-17T07:55:36;101752.22;;;15.60;86.41
30897;BME280;64229;52.246;21.054;2022-10-17T07:58:01;101759.78;;;15.63;87.48
30897;BME280;64229;52.246;21.054;2022-10-17T08:00:27;101770.09;;;15.86;84.67
30897;BME280;64229;52.246;21.054;2022-10-17T08:02:52;101777.44;;;16.06;84.26
30897;BME280;64229;52.246;21.054;2022-10-17T08:05:17;101782.28;;;16.14;83.95
30897;BME280;64229;52.246;21.054;2022-10-17T08:07:43;101778.03;;;16.29;82.77
30897;BME280;64229;52.246;21.054;2022-10-17T08:10:10;101783.97;;;16.46;81.75
30897;BME280;64229;52.246;21.054;2022-10-17T08:12:36;101781.28;;;16.56;80.25
30897;BME280;64229;52.246;21.054;2022-10-17T08:15:02;101780.97;;;16.37;80.37
30897;BME280;64229;52.246;21.054;2022-10-17T08:17:29;101789.03;;;16.17;81.38
30897;BME280;64229;52.246;21.054;2022-10-17T08:19:54;101780.97;;;16.22;81.91
30897;BME280;64229;52.246;21.054;2022-10-17T08:22:19;101777.47;;;16.32;81.64
30897;BME280;64229;52.246;21.054;2022-10-17T08:24:44;101783.69;;;16.42;81.16
30897;BME280;64229;52.246;21.054;2022-10-17T08:27:10;101784.25;;;16.55;80.89
30897;BME280;64229;52.246;21.054;2022-10-17T08:29:40;101782.13;;;16.72;79.55
30897;BME280;64229;52.246;21.054;2022-10-17T08:32:06;101783.22;;;16.86;78.59
30897;BME280;64229;52.246;21.054;2022-10-17T08:34:33;101787.81;;;16.81;78.74
30897;BME280;64229;52.246;21.054;2022-10-17T08:36:58;101781.59;;;16.80;79.59
30897;BME280;64229;52.246;21.054;2022-10-17T08:39:23;101776.72;;;16.77;79.29
30897;BME280;64229;52.246;21.054;2022-10-17T08:47:13;101768.06;;;16.65;79.32
30897;BME280;64229;52.246;21.054;2022-10-17T08:49:50;101775.94;;;16.76;79.61
30897;BME280;64229;52.246;21.054;2022-10-17T08:52:29;101759.75;;;16.92;79.52
30897;BME280;64229;52.246;21.054;2022-10-17T08:54:56;101767.28;;;17.05;80.06
30897;BME280;64229;52.246;21.054;2022-10-17T08:57:21;101766.13;;;17.31;77.01
30897;BME280;64229;52.246;21.054;2022-10-17T08:59:51;101772.63;;;17.30;77.25
30897;BME280;64229;52.246;21.054;2022-10-17T09:10:37;101764.16;;;17.73;75.48
30897;BME280;64229;52.246;21.054;2022-10-17T09:13:22;101756.31;;;17.76;74.95
30897;BME280;64229;52.246;21.054;2022-10-17T09:16:03;101747.88;;;17.88;74.66
30897;BME280;64229;52.246;21.054;2022-10-17T09:18:36;101757.22;;;18.06;74.21
30897;BME280;64229;52.246;21.054;2022-10-17T09:22:02;101748.53;;;18.14;74.27
30897;BME280;64229;52.246;21.054;2022-10-17T09:24:14;101757.84;;;18.37;75.20
30897;BME280;64229;52.246;21.054;2022-10-17T09:26:43;101759.88;;;18.55;74.52
30897;BME280;64229;52.246;21.054;2022-10-17T09:29:17;101755.66;;;18.78;73.83
30897;BME280;64229;52.246;21.054;2022-10-17T09:32:09;101756.19;;;19.09;70.31
30897;BME280;64229;52.246;21.054;2022-10-17T09:34:36;101754.06;;;19.30;67.73
30897;BME280;64229;52.246;21.054;2022-10-17T09:37:01;101757.88;;;19.00;68.13
30897;BME280;64229;52.246;21.054;2022-10-17T09:39:27;101746.69;;;19.12;67.98
30897;BME280;64229;52.246;21.054;2022-10-17T09:41:59;101743.97;;;19.12;68.14
30897;BME280;64229;52.246;21.054;2022-10-17T09:45:02;101751.66;;;19.28;67.52
30897;BME280;64229;52.246;21.054;2022-10-17T09:47:43;101755.75;;;19.26;67.14
30897;BME280;64229;52.246;21.054;2022-10-17T09:50:20;101758.22;;;19.46;66.67
30897;BME280;64229;52.246;21.054;2022-10-17T09:52:48;101753.53;;;19.52;66.25
30897;BME280;64229;52.246;21.054;2022-10-17T09:55:19;101755.41;;;19.56;67.14
30897;BME280;64229;52.246;21.054;2022-10-17T09:57:57;101748.13;;;19.76;65.84
30897;BME280;64229;52.246;21.054;2022-10-17T10:00:25;101744.94;;;19.92;65.85
30897;BME280;64229;52.246;21.054;2022-10-17T10:03:07;101740.91;;;19.90;65.01
30897;BME280;64229;52.246;21.054;2022-10-17T10:05:32;101741.28;;;20.02;64.70
30897;BME280;64229;52.246;21.054;2022-10-17T10:08:01;101733.28;;;19.92;63.36
30897;BME280;64229;52.246;21.054;2022-10-17T10:10:28;101718.19;;;19.86;64.39
30897;BME280;64229;52.246;21.054;2022-10-17T10:15:40;101735.13;;;20.15;63.29
30897;BME280;64229;52.246;21.054;2022-10-17T10:21:22;101729.09;;;20.37;62.17
30897;BME280;64229;52.246;21.054;2022-10-17T10:24:13;101728.13;;;20.28;64.05
30897;BME280;64229;52.246;21.054;2022-10-17T10:26:44;101723.88;;;20.41;62.77
30897;BME280;64229;52.246;21.054;2022-10-17T10:29:31;101724.47;;;20.57;61.35
30897;BME280;64229;52.246;21.054;2022-10-17T10:32:22;101727.72;;;20.72;61.51
30897;BME280;64229;52.246;21.054;2022-10-17T10:34:52;101719.22;;;20.46;61.67
30897;BME280;64229;52.246;21.054;2022-10-17T10:37:27;101726.25;;;20.47;62.36
30897;BME280;64229;52.246;21.054;2022-10-17T10:39:57;101728.75;;;20.44;62.28
30897;BME280;64229;52.246;21.054;2022-10-17T10:42:26;101721.25;;;20.55;62.37
30897;BME280;64229;52.246;21.054;2022-10-17T10:44:57;101725.25;;;20.57;62.30
30897;BME280;64229;52.246;21.054;2022-10-17T10:47:25;101727.72;;;20.72;61.46
30897;BME280;64229;52.246;21.054;2022-10-17T10:52:51;101717.28;;;20.79;60.93
30897;BME280;64229;52.246;21.054;2022-10-17T10:55:26;101723.63;;;21.02;59.29
30897;BME280;64229;52.246;21.054;2022-10-17T10:57:57;101723.94;;;21.15;58.09
30897;BME280;64229;52.246;21.054;2022-10-17T11:00:26;101721.75;;;21.17;57.92
30897;BME280;64229;52.246;21.054;2022-10-17T11:03:01;101719.81;;;20.90;58.77
30897;BME280;64229;52.246;21.054;2022-10-17T11:05:49;101728.69;;;20.95;59.16
30897;BME280;64229;52.246;21.054;2022-10-17T11:11:06;101723.88;;;21.06;58.46
30897;BME280;64229;52.246;21.054;2022-10-17T11:13:38;101728.56;;;21.00;58.97
30897;BME280;64229;52.246;21.054;2022-10-17T11:16:27;101731.41;;;21.09;58.95
30897;BME280;64229;52.246;21.054;2022-10-17T11:19:02;101725.13;;;21.27;57.83
30897;BME280;64229;52.246;21.054;2022-10-17T11:24:30;101717.41;;;21.16;57.79
30897;BME280;64229;52.246;21.054;2022-10-17T11:27:00;101713.00;;;21.06;58.66
30897;BME280;64229;52.246;21.054;2022-10-17T11:29:32;101725.06;;;21.00;58.40
30897;BME280;64229;52.246;21.054;2022-10-17T11:32:04;101728.06;;;20.85;59.28
30897;BME280;64229;52.246;21.054;2022-10-17T11:34:38;101725.06;;;21.14;58.02
30897;BME280;64229;52.246;21.054;2022-10-17T11:37:16;101725.97;;;21.23;57.23
30897;BME280;64229;52.246;21.054;2022-10-17T11:39:48;101725.28;;;21.17;57.89
30897;BME280;64229;52.246;21.054;2022-10-17T11:42:27;101716.41;;;20.98;57.81
30897;BME280;64229;52.246;21.054;2022-10-17T11:45:15;101716.22;;;21.08;57.87
30897;BME280;64229;52.246;21.054;2022-10-17T11:47:56;101721.75;;;21.17;56.93
30897;BME280;64229;52.246;21.054;2022-10-17T11:50:31;101716.16;;;21.27;57.33
30897;BME280;64229;52.246;21.054;2022-10-17T11:53:05;101718.06;;;21.40;56.23
30897;BME280;64229;52.246;21.054;2022-10-17T11:55:34;101720.06;;;21.48;56.54
30897;BME280;64229;52.246;21.054;2022-10-17T11:58:27;101724.19;;;21.59;56.34
30897;BME280;64229;52.246;21.054;2022-10-17T12:09:06;101727.47;;;21.84;55.23
30897;BME280;64229;52.246;21.054;2022-10-17T12:14:35;101729.50;;;22.01;54.28
30897;BME280;64229;52.246;21.054;2022-10-17T12:17:20;101729.09;;;21.71;54.45
30897;BME280;64229;52.246;21.054;2022-10-17T12:19:46;101724.50;;;21.44;55.74
30897;BME280;64229;52.246;21.054;2022-10-17T12:24:44;101725.97;;;20.95;57.99
30897;BME280;64229;52.246;21.054;2022-10-17T12:27:38;101717.53;;;20.97;57.79
30897;BME280;64229;52.246;21.054;2022-10-17T12:30:23;101708.28;;;20.98;57.97
30897;BME280;64229;52.246;21.054;2022-10-17T12:32:56;101711.53;;;21.27;57.37
30897;BME280;64229;52.246;21.054;2022-10-17T12:35:23;101712.50;;;21.45;56.81
30897;BME280;64229;52.246;21.054;2022-10-17T12:48:18;101693.56;;;22.04;54.44
30897;BME280;64229;52.246;21.054;2022-10-17T12:51:05;101692.88;;;21.98;55.07
30897;BME280;64229;52.246;21.054;2022-10-17T12:53:45;101681.91;;;22.03;54.71
30897;BME280;64229;52.246;21.054;2022-10-17T12:56:14;101691.19;;;21.52;56.01
30897;BME280;64229;52.246;21.054;2022-10-17T12:58:45;101677.59;;;21.52;56.28
30897;BME280;64229;52.246;21.054;2022-10-17T13:01:21;101673.72;;;21.81;55.61
30897;BME280;64229;52.246;21.054;2022-10-17T13:03:50;101666.72;;;21.88;54.46
30897;BME280;64229;52.246;21.054;2022-10-17T13:06:22;101679.19;;;22.03;54.44
30897;BME280;64229;52.246;21.054;2022-10-17T13:08:57;101678.53;;;21.84;54.14
30897;BME280;64229;52.246;21.054;2022-10-17T13:11:24;101680.94;;;21.85;54.04
30897;BME280;64229;52.246;21.054;2022-10-17T13:13:54;101684.94;;;22.02;54.09
30897;BME280;64229;52.246;21.054;2022-10-17T13:16:36;101683.81;;;22.03;54.40
30897;BME280;64229;52.246;21.054;2022-10-17T13:19:12;101677.16;;;22.09;54.45
30897;BME280;64229;52.246;21.054;2022-10-17T13:21:38;101686.00;;;22.01;54.87
30897;BME280;64229;52.246;21.054;2022-10-17T13:24:29;101681.31;;;22.06;55.02
30897;BME280;64229;52.246;21.054;2022-10-17T13:26:55;101677.75;;;22.06;54.81
30897;BME280;64229;52.246;21.054;2022-10-17T13:29:21;101681.00;;;22.08;54.83
30897;BME280;64229;52.246;21.054;2022-10-17T13:31:52;101672.38;;;21.92;54.21
30897;BME280;64229;52.246;21.054;2022-10-17T13:34:23;101678.22;;;21.85;54.64
30897;BME280;64229;52.246;21.054;2022-10-17T13:36:54;101681.06;;;21.80;54.96
30897;BME280;64229;52.246;21.054;2022-10-17T13:39:28;101681.00;;;21.72;55.33
30897;BME280;64229;52.246;21.054;2022-10-17T13:41:55;101673.72;;;21.67;55.19
30897;BME280;64229;52.246;21.054;2022-10-17T13:44:27;101676.69;;;21.57;55.84
30897;BME280;64229;52.246;21.054;2022-10-17T13:46:53;101666.81;;;21.61;55.55
30897;BME280;64229;52.246;21.054;2022-10-17T13:49:32;101666.34;;;21.45;56.29
30897;BME280;64229;52.246;21.054;2022-10-17T13:51:59;101664.72;;;21.44;56.10
30897;BME280;64229;52.246;21.054;2022-10-17T13:54:38;101663.25;;;21.38;56.51
30897;BME280;64229;52.246;21.054;2022-10-17T13:57:22;101671.19;;;21.34;56.52
30897;BME280;64229;52.246;21.054;2022-10-17T13:59:51;101663.97;;;21.30;57.07
30897;BME280;64229;52.246;21.054;2022-10-17T14:02:23;101657.91;;;21.05;57.67
30897;BME280;64229;52.246;21.054;2022-10-17T14:05:07;101663.44;;;20.87;58.82
30897;BME280;64229;52.246;21.054;2022-10-17T14:07:40;101638.19;;;20.72;58.78
30897;BME280;64229;52.246;21.054;2022-10-17T14:10:18;101651.97;;;20.76;59.50